Time;durP1;ratioP1;P1;durP2;ratioP2;P2;SDS_P1;SDS_P2;PMS_P1;PMS_P2;Temp;Humidity;BMP_temperature;BMP_pressure;BME280_temperature;BME280_humidity;BME280_pressure;Samples;Min_cycle;Max_cycle;Signal;HPM_P1;HPM_P2
2024/03/23 00:02:08;;;;;;;14.00;6.67;;;;;;;;;;6065346;23;20418;-86
2024/03/23 00:04:35;;;;;;;9.50;7.60;;;;;;;;;;6095664;23;20427;-85
2024/03/23 00:07:13;;;;;;;13.30;7.50;;;;;;;;;;6086633;23;20404;-87
2024/03/23 00:09:54;;;;;;;13.73;7.53;;;;;;;;;;6085649;23;20404;-86
2024/03/23 00:12:30;;;;;;;11.70;7.27;;;;;;;;;;6091273;23;20407;-87
2024/03/23 00:14:57;;;;;;;12.40;7.47;;;;;;;;;;6092817;23;20408;-88
2024/03/23 00:17:29;;;;;;;15.23;7.80;;;;;;;;;;6091157;23;20439;-85
2024/03/23 00:20:13;;;;;;;12.47;6.93;;;;;;;;;;6105943;23;20435;-86
2024/03/23 00:22:43;;;;;;;15.53;6.53;;;;;;;;;;6077445;23;20411;-87
2024/03/23 00:25:14;;;;;;;10.30;6.23;;;;;;;;;;6077887;23;20404;-86
2024/03/23 00:27:44;;;;;;;11.17;6.10;;;;;;;;;;6073796;23;20918;-87
2024/03/23 00:30:28;;;;;;;10.20;5.83;;;;;;;;;;6097521;23;20474;-86
2024/03/23 00:33:03;;;;;;;13.23;6.13;;;;;;;;;;6100083;23;20411;-87
2024/03/23 00:35:36;;;;;;;10.70;5.37;;;;;;;;;;6076017;23;20418;-88
2024/03/23 00:38:07;;;;;;;8.77;5.37;;;;;;;;;;6073411;23;20436;-87
2024/03/23 00:40:38;;;;;;;11.40;5.60;;;;;;;;;;6081543;23;20447;-87
2024/03/23 00:43:17;;;;;;;14.77;6.00;;;;;;;;;;6105834;23;20390;-87
2024/03/23 00:45:47;;;;;;;11.90;6.83;;;;;;;;;;6078443;23;20400;-85
2024/03/23 00:48:21;;;;;;;10.50;5.83;;;;;;;;;;6104691;23;20423;-86
2024/03/23 00:51:01;;;;;;;10.53;5.50;;;;;;;;;;6103420;23;20416;-88
2024/03/23 00:53:33;;;;;;;9.10;4.77;;;;;;;;;;6078278;23;20656;-84
2024/03/23 00:56:03;;;;;;;9.23;5.50;;;;;;;;;;6100193;23;20407;-87
2024/03/23 00:58:35;;;;;;;9.27;5.67;;;;;;;;;;6099458;23;20434;-84
2024/03/23 01:01:11;;;;;;;9.33;5.13;;;;;;;;;;6099179;23;20452;-85
2024/03/23 01:03:54;;;;;;;9.40;5.57;;;;;;;;;;6098865;23;20419;-87
2024/03/23 01:06:21;;;;;;;14.17;5.63;;;;;;;;;;6102346;23;20410;-86
2024/03/23 01:09:15;;;;;;;9.43;5.70;;;;;;;;;;6125443;23;20794;-86
2024/03/23 01:11:42;;;;;;;12.00;5.83;;;;;;;;;;6125870;23;20434;-86
2024/03/23 01:14:11;;;;;;;7.57;5.53;;;;;;;;;;6102624;23;20414;-87
2024/03/23 01:16:41;;;;;;;12.13;5.40;;;;;;;;;;6098845;23;20410;-85
2024/03/23 01:19:17;;;;;;;11.37;5.40;;;;;;;;;;6101083;23;20456;-87
2024/03/23 01:22:02;;;;;;;9.87;4.90;;;;;;;;;;6098976;23;20817;-87
2024/03/23 01:24:40;;;;;;;6.07;3.90;;;;;;;;;;6096252;23;20397;-87
2024/03/23 01:27:23;;;;;;;5.00;3.67;;;;;;;;;;6125547;23;20396;-85
2024/03/23 01:29:52;;;;;;;6.03;4.17;;;;;;;;;;6100794;23;20416;-84
2024/03/23 01:32:19;;;;;;;5.10;2.70;;;;;;;;;;6101909;23;20408;-86
2024/03/23 01:34:46;;;;;;;3.57;2.40;;;;;;;;;;6126358;23;20466;-83
2024/03/23 01:37:12;;;;;;;4.10;2.53;;;;;;;;;;6096068;23;20414;-83
2024/03/23 01:39:39;;;;;;;3.43;2.40;;;;;;;;;;6119509;23;20448;-87
2024/03/23 01:42:05;;;;;;;5.10;2.10;;;;;;;;;;6095145;23;20404;-86
2024/03/23 01:44:35;;;;;;;1.87;1.57;;;;;;;;;;6095747;23;20403;-86
2024/03/23 01:47:04;;;;;;;3.83;1.97;;;;;;;;;;6122227;23;20693;-85
2024/03/23 01:49:30;;;;;;;2.00;1.80;;;;;;;;;;6131114;23;20408;-86
2024/03/23 01:51:57;;;;;;;7.90;3.80;;;;;;;;;;6116208;23;20400;-88
2024/03/23 01:54:26;;;;;;;2.20;2.00;;;;;;;;;;6134176;23;20408;-86
2024/03/23 01:56:55;;;;;;;3.90;1.90;;;;;;;;;;6103044;23;20414;-86
2024/03/23 01:59:21;;;;;;;3.90;2.23;;;;;;;;;;6100028;23;20458;-86
2024/03/23 02:01:48;;;;;;;2.87;2.23;;;;;;;;;;6100258;23;20403;-87
2024/03/23 02:04:14;;;;;;;8.57;2.97;;;;;;;;;;6124165;23;20454;-87
2024/03/23 02:06:41;;;;;;;2.90;1.93;;;;;;;;;;6099082;23;20414;-86
2024/03/23 02:09:08;;;;;;;4.50;2.67;;;;;;;;;;6130511;23;20438;-87
2024/03/23 02:11:34;;;;;;;4.20;2.50;;;;;;;;;;6139307;23;20410;-85
2024/03/23 02:14:01;;;;;;;3.20;2.30;;;;;;;;;;6140597;23;20410;-87
2024/03/23 02:16:28;;;;;;;4.00;1.73;;;;;;;;;;6106927;23;20408;-86
2024/03/23 02:18:55;;;;;;;2.53;2.33;;;;;;;;;;6098353;23;20423;-85
2024/03/23 02:21:24;;;;;;;5.10;1.83;;;;;;;;;;6097617;23;20423;-85
2024/03/23 02:23:51;;;;;;;3.00;2.07;;;;;;;;;;6095189;23;21240;-86
2024/03/23 02:26:31;;;;;;;2.63;1.70;;;;;;;;;;6121168;23;20403;-84
2024/03/23 02:29:01;;;;;;;2.83;1.97;;;;;;;;;;6096692;23;20424;-85
2024/03/23 02:31:31;;;;;;;6.00;2.67;;;;;;;;;;6120210;23;20407;-87
2024/03/23 02:33:57;;;;;;;5.20;2.10;;;;;;;;;;6096446;23;20448;-88
2024/03/23 02:36:26;;;;;;;3.23;1.90;;;;;;;;;;6096128;23;20470;-88
2024/03/23 02:38:53;;;;;;;3.03;1.50;;;;;;;;;;6094621;23;20434;-86
2024/03/23 02:41:25;;;;;;;3.20;1.77;;;;;;;;;;6094926;23;20427;-84
2024/03/23 02:43:52;;;;;;;2.60;1.97;;;;;;;;;;6095507;23;20399;-85
2024/03/23 02:46:18;;;;;;;2.83;1.57;;;;;;;;;;6095721;23;20447;-86
2024/03/23 02:48:45;;;;;;;2.00;1.53;;;;;;;;;;6096686;23;20419;-87
2024/03/23 02:51:11;;;;;;;2.40;1.53;;;;;;;;;;6119173;23;20412;-85
2024/03/23 02:53:38;;;;;;;2.63;1.67;;;;;;;;;;6120820;23;20403;-85
2024/03/23 02:56:04;;;;;;;3.77;1.60;;;;;;;;;;6099335;23;20412;-86
2024/03/23 02:58:31;;;;;;;5.93;1.57;;;;;;;;;;6102149;23;21048;-86
2024/03/23 03:00:58;;;;;;;2.70;1.50;;;;;;;;;;6100024;23;20466;-84
2024/03/23 03:03:25;;;;;;;3.03;1.27;;;;;;;;;;6099269;23;20415;-86
2024/03/23 03:06:01;;;;;;;2.20;1.77;;;;;;;;;;6099739;23;20404;-86
2024/03/23 03:08:27;;;;;;;5.43;1.77;;;;;;;;;;6100079;23;20423;-84
2024/03/23 03:10:53;;;;;;;3.23;1.90;;;;;;;;;;6113325;23;20591;-86
2024/03/23 03:13:23;;;;;;;2.90;1.80;;;;;;;;;;6113482;23;20404;-85
2024/03/23 03:15:49;;;;;;;2.80;1.83;;;;;;;;;;6136970;23;20408;-85
2024/03/23 03:18:19;;;;;;;5.93;1.83;;;;;;;;;;6113745;23;20676;-86
2024/03/23 03:20:45;;;;;;;6.70;2.50;;;;;;;;;;6113111;23;20849;-86
2024/03/23 03:23:12;;;;;;;2.90;1.77;;;;;;;;;;6114585;23;20505;-88
2024/03/23 03:25:38;;;;;;;3.57;2.07;;;;;;;;;;6115125;23;20402;-86
2024/03/23 03:28:07;;;;;;;2.60;1.47;;;;;;;;;;6115291;23;20416;-88
2024/03/23 03:30:34;;;;;;;4.73;2.30;;;;;;;;;;6140506;23;20408;-87
2024/03/23 03:33:00;;;;;;;6.60;2.97;;;;;;;;;;6140317;23;20419;-89
2024/03/23 03:35:27;;;;;;;7.27;2.20;;;;;;;;;;6114816;23;20396;-84
2024/03/23 03:37:56;;;;;;;4.10;1.93;;;;;;;;;;6098640;23;20831;-83
2024/03/23 03:40:24;;;;;;;3.43;1.80;;;;;;;;;;6095826;23;20459;-84
2024/03/23 03:42:54;;;;;;;7.20;2.47;;;;;;;;;;6095882;23;20435;-85
2024/03/23 03:45:20;;;;;;;7.47;2.60;;;;;;;;;;6095147;23;20404;-85
2024/03/23 03:47:46;;;;;;;7.73;2.20;;;;;;;;;;6094418;23;20438;-84
2024/03/23 03:50:12;;;;;;;3.73;2.00;;;;;;;;;;6120238;23;21247;-83
2024/03/23 03:52:42;;;;;;;6.90;2.23;;;;;;;;;;6095619;23;20404;-83
2024/03/23 03:55:13;;;;;;;3.50;1.77;;;;;;;;;;6096567;23;20750;-83
2024/03/23 03:57:42;;;;;;;5.33;2.00;;;;;;;;;;6095200;23;20467;-84
2024/03/23 04:00:11;;;;;;;5.90;1.67;;;;;;;;;;6094735;23;20447;-85
2024/03/23 04:02:40;;;;;;;7.03;2.07;;;;;;;;;;6085886;23;20404;-86
2024/03/23 04:05:12;;;;;;;5.83;1.90;;;;;;;;;;6090381;23;20438;-87
2024/03/23 04:07:41;;;;;;;6.13;1.67;;;;;;;;;;6093163;23;21039;-87
2024/03/23 04:10:08;;;;;;;2.23;1.30;;;;;;;;;;6100981;23;20423;-85
2024/03/23 04:12:35;;;;;;;3.90;1.50;;;;;;;;;;6112023;23;20740;-85
2024/03/23 04:15:04;;;;;;;3.43;1.70;;;;;;;;;;6113178;23;20759;-88
2024/03/23 04:17:35;;;;;;;3.40;1.60;;;;;;;;;;6107562;23;20432;-86
2024/03/23 04:20:03;;;;;;;4.07;1.57;;;;;;;;;;6100141;23;20455;-85
2024/03/23 04:22:33;;;;;;;3.97;1.70;;;;;;;;;;6101344;23;20400;-87
2024/03/23 04:24:59;;;;;;;4.03;1.40;;;;;;;;;;6100436;23;20404;-85
2024/03/23 04:27:28;;;;;;;5.10;1.47;;;;;;;;;;6083727;23;20799;-87
2024/03/23 04:29:54;;;;;;;3.03;1.37;;;;;;;;;;6094916;23;20419;-83
2024/03/23 04:32:22;;;;;;;4.27;1.70;;;;;;;;;;6096554;23;20412;-84
2024/03/23 04:34:48;;;;;;;4.33;1.37;;;;;;;;;;6103133;23;20427;-87
2024/03/23 04:37:16;;;;;;;6.37;1.43;;;;;;;;;;6115511;23;20416;-88
2024/03/23 04:39:42;;;;;;;1.80;1.27;;;;;;;;;;6121002;23;20934;-88
2024/03/23 04:42:11;;;;;;;4.33;1.53;;;;;;;;;;6146199;23;20452;-86
2024/03/23 04:44:38;;;;;;;4.23;2.07;;;;;;;;;;6120987;23;20487;-86
2024/03/23 04:47:07;;;;;;;3.90;1.60;;;;;;;;;;6143770;23;20464;-86
2024/03/23 04:49:36;;;;;;;4.33;1.57;;;;;;;;;;6103174;23;20438;-85
2024/03/23 04:52:04;;;;;;;2.40;1.10;;;;;;;;;;6101460;23;20754;-86
2024/03/23 04:54:33;;;;;;;6.20;1.80;;;;;;;;;;6124323;23;20408;-85
2024/03/23 04:57:00;;;;;;;5.03;1.80;;;;;;;;;;6100321;23;20886;-87
2024/03/23 04:59:37;;;;;;;4.63;1.40;;;;;;;;;;6099166;23;20444;-88
2024/03/23 05:02:06;;;;;;;2.80;1.87;;;;;;;;;;6098953;23;20400;-84
2024/03/23 05:04:36;;;;;;;9.17;1.93;;;;;;;;;;6122054;23;20422;-85
2024/03/23 05:07:05;;;;;;;4.50;1.60;;;;;;;;;;6097902;23;20406;-85
2024/03/23 05:09:32;;;;;;;4.70;1.77;;;;;;;;;;6098018;23;20423;-85
2024/03/23 05:12:02;;;;;;;3.33;1.23;;;;;;;;;;6096960;23;20408;-87
2024/03/23 05:14:29;;;;;;;3.07;1.87;;;;;;;;;;6122044;23;20418;-86
2024/03/23 05:16:58;;;;;;;1.90;1.30;;;;;;;;;;6119548;23;20404;-86
2024/03/23 05:19:26;;;;;;;3.90;1.47;;;;;;;;;;6122140;23;20451;-85
2024/03/23 05:21:53;;;;;;;4.90;2.30;;;;;;;;;;6103086;23;20404;-85
2024/03/23 05:24:19;;;;;;;4.00;1.60;;;;;;;;;;6096000;23;20407;-85
2024/03/23 05:26:45;;;;;;;4.17;1.70;;;;;;;;;;6096589;23;20521;-86
2024/03/23 05:29:17;;;;;;;4.80;1.80;;;;;;;;;;6118447;23;20420;-86
2024/03/23 05:31:46;;;;;;;3.67;1.43;;;;;;;;;;6096453;23;20408;-86
2024/03/23 05:34:15;;;;;;;5.83;1.87;;;;;;;;;;6097070;23;20412;-84
2024/03/23 05:36:42;;;;;;;5.87;1.63;;;;;;;;;;6096380;23;20779;-86
2024/03/23 05:39:08;;;;;;;6.90;2.10;;;;;;;;;;6094312;23;20424;-87
2024/03/23 05:41:36;;;;;;;7.83;2.00;;;;;;;;;;6119162;23;20418;-87
2024/03/23 05:44:02;;;;;;;2.33;1.80;;;;;;;;;;6095189;23;20426;-87
2024/03/23 05:46:34;;;;;;;3.90;1.60;;;;;;;;;;6096054;23;20404;-86
2024/03/23 05:49:02;;;;;;;4.20;1.67;;;;;;;;;;6109626;23;20424;-88
2024/03/23 05:51:28;;;;;;;7.37;1.60;;;;;;;;;;6116653;23;20466;-88
2024/03/23 05:54:00;;;;;;;3.93;1.57;;;;;;;;;;6114211;23;20392;-88
2024/03/23 05:56:27;;;;;;;3.67;1.50;;;;;;;;;;6100726;23;20897;-89
2024/03/23 05:58:53;;;;;;;5.47;1.90;;;;;;;;;;6096535;23;21278;-84
2024/03/23 06:01:20;;;;;;;5.60;1.70;;;;;;;;;;6097053;23;20755;-86
2024/03/23 06:03:47;;;;;;;7.60;2.13;;;;;;;;;;6120261;23;20962;-86
2024/03/23 06:06:13;;;;;;;4.20;2.90;;;;;;;;;;6095508;23;20406;-88
2024/03/23 06:08:42;;;;;;;6.13;1.77;;;;;;;;;;6120521;23;20427;-87
2024/03/23 06:11:09;;;;;;;7.67;3.00;;;;;;;;;;6095419;23;21303;-84
2024/03/23 06:13:36;;;;;;;4.57;1.70;;;;;;;;;;6094224;23;20400;-86
2024/03/23 06:16:02;;;;;;;9.33;2.07;;;;;;;;;;6094985;23;21057;-87
2024/03/23 06:18:28;;;;;;;3.80;2.50;;;;;;;;;;6090553;23;20952;-85
2024/03/23 06:20:55;;;;;;;7.27;2.67;;;;;;;;;;6116497;23;20452;-87
2024/03/23 06:23:21;;;;;;;4.43;2.00;;;;;;;;;;6092119;23;20578;-86
2024/03/23 06:25:48;;;;;;;7.27;2.50;;;;;;;;;;6092256;23;20404;-85
2024/03/23 06:28:18;;;;;;;7.30;2.30;;;;;;;;;;6091208;23;20431;-85
2024/03/23 06:30:44;;;;;;;4.60;2.30;;;;;;;;;;6093007;23;20416;-84
2024/03/23 06:33:14;;;;;;;13.03;5.67;;;;;;;;;;6092451;23;20400;-84
2024/03/23 06:35:41;;;;;;;7.40;2.60;;;;;;;;;;6096835;23;20412;-87
2024/03/23 06:38:07;;;;;;;6.33;2.50;;;;;;;;;;6095517;23;20431;-86
2024/03/23 06:40:33;;;;;;;7.37;2.20;;;;;;;;;;6097160;23;21264;-85
2024/03/23 06:43:03;;;;;;;6.17;2.23;;;;;;;;;;6096268;23;20403;-85
2024/03/23 06:45:29;;;;;;;3.77;1.80;;;;;;;;;;6111253;23;20440;-85
2024/03/23 06:47:57;;;;;;;5.37;2.47;;;;;;;;;;6097136;23;20427;-87
2024/03/23 06:50:23;;;;;;;5.03;2.33;;;;;;;;;;6097612;23;20408;-87
2024/03/23 06:52:53;;;;;;;6.90;3.90;;;;;;;;;;6096498;23;20511;-87
2024/03/23 06:55:19;;;;;;;14.97;2.90;;;;;;;;;;6098743;23;20414;-85
2024/03/23 06:57:48;;;;;;;5.87;2.10;;;;;;;;;;6098469;23;20997;-85
2024/03/23 07:00:16;;;;;;;7.23;2.10;;;;;;;;;;6105335;23;20444;-86
2024/03/23 07:02:45;;;;;;;4.40;2.47;;;;;;;;;;6099005;23;20878;-86
2024/03/23 07:05:11;;;;;;;6.10;2.00;;;;;;;;;;6119466;23;20416;-85
2024/03/23 07:07:38;;;;;;;6.23;2.73;;;;;;;;;;6122515;23;20430;-88
2024/03/23 07:10:08;;;;;;;2.20;1.80;;;;;;;;;;6097979;23;20905;-87
2024/03/23 07:12:34;;;;;;;6.50;2.77;;;;;;;;;;6099351;23;20414;-86
2024/03/23 07:15:04;;;;;;;5.87;2.40;;;;;;;;;;6099361;23;20878;-84
2024/03/23 07:17:32;;;;;;;6.93;2.43;;;;;;;;;;6100142;23;20968;-85
2024/03/23 07:20:01;;;;;;;6.50;2.50;;;;;;;;;;6100703;23;20443;-84
2024/03/23 07:22:31;;;;;;;6.70;3.20;;;;;;;;;;6103566;23;20400;-85
2024/03/23 07:24:57;;;;;;;6.53;3.00;;;;;;;;;;6108925;23;20404;-87
2024/03/23 07:27:30;;;;;;;10.87;3.33;;;;;;;;;;6122090;23;20551;-86
2024/03/23 07:30:00;;;;;;;4.57;2.30;;;;;;;;;;6146579;23;20463;-90
2024/03/23 07:32:30;;;;;;;5.43;3.07;;;;;;;;;;6121144;23;20467;-87
2024/03/23 07:35:02;;;;;;;4.40;2.60;;;;;;;;;;6122372;23;20459;-86
2024/03/23 07:37:35;;;;;;;6.90;3.37;;;;;;;;;;6121616;23;20508;-88
2024/03/23 07:40:02;;;;;;;7.30;2.70;;;;;;;;;;6120695;23;20471;-90
2024/03/23 07:42:37;;;;;;;7.83;3.27;;;;;;;;;;6118284;23;20873;-88
2024/03/23 07:45:06;;;;;;;7.83;3.07;;;;;;;;;;6139772;23;20558;-86
2024/03/23 07:47:43;;;;;;;7.47;3.30;;;;;;;;;;6100417;23;20925;-86
2024/03/23 07:50:12;;;;;;;5.90;3.10;;;;;;;;;;6096196;23;20392;-86
2024/03/23 07:52:41;;;;;;;5.10;3.30;;;;;;;;;;6096901;23;20404;-86
2024/03/23 07:55:11;;;;;;;8.23;3.37;;;;;;;;;;6119034;23;20408;-84
2024/03/23 07:57:41;;;;;;;7.20;4.00;;;;;;;;;;6093618;23;20420;-87
2024/03/23 08:00:10;;;;;;;6.40;3.27;;;;;;;;;;6093973;23;20472;-86
2024/03/23 08:02:42;;;;;;;6.10;4.00;;;;;;;;;;6094049;23;20400;-86
2024/03/23 08:05:13;;;;;;;7.03;3.70;;;;;;;;;;6095624;23;20420;-87
2024/03/23 08:07:56;;;;;;;6.73;4.27;;;;;;;;;;6097473;23;20439;-85
2024/03/23 08:10:25;;;;;;;8.40;4.03;;;;;;;;;;6095140;23;20960;-85
2024/03/23 08:12:51;;;;;;;13.80;3.97;;;;;;;;;;6095758;23;20404;-87
2024/03/23 08:15:24;;;;;;;6.23;3.63;;;;;;;;;;6097593;23;20951;-82
2024/03/23 08:17:55;;;;;;;6.30;3.50;;;;;;;;;;6098075;23;20439;-87
2024/03/23 08:20:22;;;;;;;8.97;4.10;;;;;;;;;;6097166;23;20451;-86
2024/03/23 08:22:48;;;;;;;6.37;3.10;;;;;;;;;;6096478;23;20404;-84
2024/03/23 08:25:21;;;;;;;7.30;3.10;;;;;;;;;;6096656;23;20406;-86
2024/03/23 08:27:49;;;;;;;5.57;3.50;;;;;;;;;;6095507;23;21012;-86
2024/03/23 08:30:18;;;;;;;8.50;3.07;;;;;;;;;;6120775;23;20408;-86
2024/03/23 08:32:46;;;;;;;3.83;2.20;;;;;;;;;;6096969;23;20412;-86
2024/03/23 08:35:18;;;;;;;5.20;2.37;;;;;;;;;;6098170;23;20404;-84
2024/03/23 08:38:01;;;;;;;4.50;2.43;;;;;;;;;;6096318;23;20750;-84
2024/03/23 08:40:27;;;;;;;5.30;2.80;;;;;;;;;;6095979;23;20448;-87
2024/03/23 08:42:59;;;;;;;3.40;3.10;;;;;;;;;;6122017;23;20529;-85
2024/03/23 08:45:25;;;;;;;6.83;2.83;;;;;;;;;;6096447;23;20785;-86
2024/03/23 08:48:00;;;;;;;6.20;3.07;;;;;;;;;;6099702;23;20777;-85
2024/03/23 08:50:37;;;;;;;5.67;2.90;;;;;;;;;;6108780;23;20411;-85
2024/03/23 08:53:04;;;;;;;7.43;4.00;;;;;;;;;;6109692;23;20415;-86
2024/03/23 08:55:41;;;;;;;6.00;4.67;;;;;;;;;;6106954;23;20408;-87
2024/03/23 08:58:08;;;;;;;6.50;3.93;;;;;;;;;;6102481;23;20427;-85
2024/03/23 09:00:37;;;;;;;6.40;3.40;;;;;;;;;;6098852;23;20458;-85
2024/03/23 09:03:07;;;;;;;8.23;4.33;;;;;;;;;;6099904;23;20414;-84
2024/03/23 09:05:39;;;;;;;8.40;4.50;;;;;;;;;;6099670;23;20822;-85
2024/03/23 09:08:08;;;;;;;4.60;3.23;;;;;;;;;;6098489;23;20462;-84
2024/03/23 09:10:49;;;;;;;6.70;3.90;;;;;;;;;;6099400;23;20400;-87
2024/03/23 09:13:24;;;;;;;5.77;3.67;;;;;;;;;;6099166;23;20412;-85
2024/03/23 09:15:56;;;;;;;12.57;4.70;;;;;;;;;;6098357;23;20403;-85
2024/03/23 09:18:30;;;;;;;8.53;3.80;;;;;;;;;;6097582;23;20424;-86
2024/03/23 09:21:02;;;;;;;3.97;3.07;;;;;;;;;;6099495;23;20451;-85
2024/03/23 09:23:29;;;;;;;7.30;3.87;;;;;;;;;;6101999;23;20660;-86
2024/03/23 09:25:58;;;;;;;6.30;3.23;;;;;;;;;;6100909;23;20404;-85
2024/03/23 09:28:28;;;;;;;7.23;3.43;;;;;;;;;;6101694;23;20428;-88
2024/03/23 09:31:02;;;;;;;11.20;3.70;;;;;;;;;;6136825;23;20414;-86
2024/03/23 09:33:32;;;;;;;12.13;3.50;;;;;;;;;;6111510;23;20408;-86
2024/03/23 09:36:05;;;;;;;6.67;3.37;;;;;;;;;;6107451;23;20408;-85
2024/03/23 09:38:32;;;;;;;5.00;3.83;;;;;;;;;;6125520;23;20947;-85
2024/03/23 09:40:59;;;;;;;7.23;3.20;;;;;;;;;;6097509;23;20525;-85
2024/03/23 09:43:34;;;;;;;6.93;3.40;;;;;;;;;;6102612;23;20400;-84
2024/03/23 09:46:02;;;;;;;7.10;2.50;;;;;;;;;;6104561;23;20399;-85
2024/03/23 09:48:31;;;;;;;6.57;2.57;;;;;;;;;;6104099;23;20431;-85
2024/03/23 09:51:00;;;;;;;6.13;2.83;;;;;;;;;;6105599;23;20447;-83
2024/03/23 09:53:32;;;;;;;11.83;3.03;;;;;;;;;;6088920;23;20404;-85
2024/03/23 09:56:17;;;;;;;2.27;2.07;;;;;;;;;;6124003;23;20411;-86
2024/03/23 09:58:46;;;;;;;7.33;2.13;;;;;;;;;;6105189;23;20454;-84
2024/03/23 10:01:13;;;;;;;6.30;2.17;;;;;;;;;;6104294;23;20450;-88
2024/03/23 10:03:46;;;;;;;6.00;1.90;;;;;;;;;;6104475;23;20406;-85
2024/03/23 10:06:34;;;;;;;5.60;2.07;;;;;;;;;;6118989;23;20596;-85
2024/03/23 10:09:18;;;;;;;2.00;1.60;;;;;;;;;;6100543;23;20423;-85
2024/03/23 10:11:50;;;;;;;5.27;1.60;;;;;;;;;;6103701;23;20755;-84
2024/03/23 10:14:36;;;;;;;4.40;2.17;;;;;;;;;;6099034;23;20411;-85
2024/03/23 10:17:17;;;;;;;4.73;2.13;;;;;;;;;;6102977;23;20403;-86
2024/03/23 10:19:49;;;;;;;3.37;1.53;;;;;;;;;;6103059;23;20458;-85
2024/03/23 10:22:23;;;;;;;4.37;2.00;;;;;;;;;;6101616;23;20414;-86
2024/03/23 10:24:52;;;;;;;11.77;6.57;;;;;;;;;;6094562;23;20402;-84
2024/03/23 10:27:24;;;;;;;5.43;2.50;;;;;;;;;;6101817;23;20399;-85
2024/03/23 10:29:51;;;;;;;6.07;2.30;;;;;;;;;;6108712;23;20408;-85
2024/03/23 10:32:30;;;;;;;8.30;4.57;;;;;;;;;;6115754;23;20427;-86
2024/03/23 10:35:14;;;;;;;9.80;5.00;;;;;;;;;;6118894;23;20427;-87
2024/03/23 10:37:41;;;;;;;2.07;1.50;;;;;;;;;;6113231;23;20411;-87
2024/03/23 10:40:10;;;;;;;1.97;1.33;;;;;;;;;;6128506;23;20450;-85
2024/03/23 10:42:42;;;;;;;3.33;1.77;;;;;;;;;;6096058;23;20477;-86
2024/03/23 10:45:11;;;;;;;1.20;1.10;;;;;;;;;;6096012;23;20406;-86
2024/03/23 10:47:38;;;;;;;4.30;2.07;;;;;;;;;;6095799;23;20423;-87
2024/03/23 10:50:11;;;;;;;5.23;1.33;;;;;;;;;;6093230;23;20719;-87
2024/03/23 10:52:42;;;;;;;2.90;1.27;;;;;;;;;;6096994;23;20410;-85
2024/03/23 10:55:10;;;;;;;2.80;1.60;;;;;;;;;;6097086;23;20416;-86
2024/03/23 10:57:37;;;;;;;1.20;1.10;;;;;;;;;;6123966;23;20426;-86
2024/03/23 11:00:06;;;;;;;1.27;1.10;;;;;;;;;;6101315;23;20461;-85
2024/03/23 11:02:35;;;;;;;3.10;1.47;;;;;;;;;;6097581;23;20400;-87
2024/03/23 11:05:02;;;;;;;7.63;1.93;;;;;;;;;;6101096;23;20400;-86
2024/03/23 11:07:30;;;;;;;1.83;1.73;;;;;;;;;;6098180;23;20447;-88
2024/03/23 11:10:02;;;;;;;3.00;1.57;;;;;;;;;;6097635;23;20412;-87
2024/03/23 11:12:35;;;;;;;5.50;1.73;;;;;;;;;;6098295;23;20410;-85
2024/03/23 11:15:06;;;;;;;3.20;1.50;;;;;;;;;;6102130;23;20414;-85
2024/03/23 11:17:35;;;;;;;3.10;1.30;;;;;;;;;;6094739;23;20436;-85
2024/03/23 11:20:05;;;;;;;2.20;1.30;;;;;;;;;;6097750;23;21209;-83
2024/03/23 11:22:40;;;;;;;3.33;1.40;;;;;;;;;;6095471;23;20404;-85
2024/03/23 11:25:29;;;;;;;6.07;1.90;;;;;;;;;;6092140;23;20410;-85
2024/03/23 11:28:02;;;;;;;1.87;1.73;;;;;;;;;;6108613;23;20423;-88
2024/03/23 11:30:38;;;;;;;2.20;1.20;;;;;;;;;;6108351;23;20412;-85
2024/03/23 11:33:07;;;;;;;3.50;1.50;;;;;;;;;;6118377;23;20483;-86
2024/03/23 11:35:43;;;;;;;4.60;1.30;;;;;;;;;;6118291;23;20696;-88
2024/03/23 11:38:09;;;;;;;1.00;0.90;;;;;;;;;;6118554;23;20498;-87
2024/03/23 11:40:48;;;;;;;4.50;1.30;;;;;;;;;;6107095;23;20443;-86
2024/03/23 11:43:21;;;;;;;2.80;1.27;;;;;;;;;;6102530;23;20404;-86
2024/03/23 11:46:02;;;;;;;2.70;1.20;;;;;;;;;;6103152;23;20395;-86
2024/03/23 11:48:32;;;;;;;1.83;1.07;;;;;;;;;;6103924;23;20511;-85
2024/03/23 11:51:01;;;;;;;2.87;1.27;;;;;;;;;;6106700;23;20753;-86
2024/03/23 11:53:31;;;;;;;2.47;1.70;;;;;;;;;;6126063;23;20847;-86
2024/03/23 11:55:59;;;;;;;2.90;1.30;;;;;;;;;;6090475;23;20409;-85
2024/03/23 11:58:32;;;;;;;2.90;1.20;;;;;;;;;;6094856;23;20498;-86
2024/03/23 12:01:08;;;;;;;4.47;1.30;;;;;;;;;;6102899;23;20450;-85
2024/03/23 12:03:35;;;;;;;3.63;1.37;;;;;;;;;;6101775;23;20474;-87
2024/03/23 12:06:05;;;;;;;2.80;1.53;;;;;;;;;;6094694;23;20404;-87
2024/03/23 12:08:42;;;;;;;1.80;1.00;;;;;;;;;;6101620;23;20485;-85
2024/03/23 12:11:13;;;;;;;1.47;0.83;;;;;;;;;;6097861;23;20886;-87
2024/03/23 12:13:41;;;;;;;3.17;0.93;;;;;;;;;;6098994;23;20408;-88
2024/03/23 12:16:14;;;;;;;3.73;1.50;;;;;;;;;;6100581;23;20416;-86
2024/03/23 12:18:44;;;;;;;0.97;0.80;;;;;;;;;;6098519;23;20424;-85
2024/03/23 12:21:14;;;;;;;3.43;1.23;;;;;;;;;;6095626;23;20454;-86
2024/03/23 12:23:46;;;;;;;2.50;1.70;;;;;;;;;;6097948;23;20418;-85
2024/03/23 12:26:28;;;;;;;4.73;2.00;;;;;;;;;;6119461;23;20434;-87
2024/03/23 12:28:54;;;;;;;2.23;1.50;;;;;;;;;;6100797;23;20428;-87
2024/03/23 12:31:21;;;;;;;1.83;0.97;;;;;;;;;;6103063;23;20392;-88
2024/03/23 12:33:48;;;;;;;1.53;1.23;;;;;;;;;;6106732;23;20408;-87
2024/03/23 12:36:14;;;;;;;0.83;0.83;;;;;;;;;;6133159;23;20412;-86
2024/03/23 12:38:43;;;;;;;2.23;0.90;;;;;;;;;;6129788;23;20428;-88
2024/03/23 12:41:11;;;;;;;0.90;0.80;;;;;;;;;;6100743;23;20971;-87
2024/03/23 12:43:37;;;;;;;1.10;1.00;;;;;;;;;;6102228;23;20407;-87
2024/03/23 12:46:04;;;;;;;1.17;0.90;;;;;;;;;;6110084;23;20410;-88
2024/03/23 12:48:32;;;;;;;2.90;0.80;;;;;;;;;;6106134;23;20430;-87
2024/03/23 12:50:58;;;;;;;1.07;0.93;;;;;;;;;;6101929;23;20908;-86
2024/03/23 12:53:24;;;;;;;2.10;0.90;;;;;;;;;;6101027;23;20412;-89
2024/03/23 12:55:57;;;;;;;2.80;1.60;;;;;;;;;;6125570;23;20416;-86
2024/03/23 12:58:24;;;;;;;1.87;0.97;;;;;;;;;;6094803;23;20640;-86
2024/03/23 13:00:51;;;;;;;1.23;1.00;;;;;;;;;;6100585;23;20447;-87
2024/03/23 13:03:18;;;;;;;5.40;3.00;;;;;;;;;;6126496;23;20735;-87
2024/03/23 13:05:44;;;;;;;1.03;0.87;;;;;;;;;;6099261;23;20412;-86
2024/03/23 13:08:13;;;;;;;1.30;1.20;;;;;;;;;;6125320;23;20500;-86
2024/03/23 13:10:39;;;;;;;1.30;1.20;;;;;;;;;;6103009;23;20414;-85
2024/03/23 13:13:07;;;;;;;2.23;1.27;;;;;;;;;;6125770;23;20400;-86
2024/03/23 13:15:34;;;;;;;1.40;0.70;;;;;;;;;;6114308;23;20408;-86
2024/03/23 13:18:03;;;;;;;0.87;0.87;;;;;;;;;;6113975;23;20553;-85
2024/03/23 13:20:29;;;;;;;1.10;1.07;;;;;;;;;;6115883;23;20460;-86
2024/03/23 13:22:56;;;;;;;1.30;0.80;;;;;;;;;;6108158;23;20404;-86
2024/03/23 13:25:24;;;;;;;1.53;0.90;;;;;;;;;;6137051;23;20404;-86
2024/03/23 13:27:51;;;;;;;1.87;1.30;;;;;;;;;;6117808;23;20503;-86
2024/03/23 13:30:18;;;;;;;1.63;1.00;;;;;;;;;;6139338;23;20408;-85
2024/03/23 13:32:44;;;;;;;1.23;1.10;;;;;;;;;;6102720;23;20435;-86
2024/03/23 13:35:13;;;;;;;1.27;1.17;;;;;;;;;;6124048;23;20414;-88
2024/03/23 13:37:41;;;;;;;2.23;1.50;;;;;;;;;;6100995;23;20964;-87
2024/03/23 13:40:08;;;;;;;1.50;1.30;;;;;;;;;;6103302;23;21269;-85
2024/03/23 13:42:40;;;;;;;1.37;1.27;;;;;;;;;;6101668;23;20482;-85
2024/03/23 13:45:06;;;;;;;4.53;1.83;;;;;;;;;;6101457;23;20403;-86
2024/03/23 13:47:38;;;;;;;1.77;1.67;;;;;;;;;;6101162;23;20424;-86
2024/03/23 13:50:07;;;;;;;5.13;2.00;;;;;;;;;;6101369;23;20433;-86
2024/03/23 13:52:34;;;;;;;1.60;1.40;;;;;;;;;;6100224;23;20414;-86
2024/03/23 13:55:21;;;;;;;3.10;1.40;;;;;;;;;;6121965;23;20396;-87
2024/03/23 13:57:50;;;;;;;1.80;1.53;;;;;;;;;;6133022;23;20427;-87
2024/03/23 14:00:38;;;;;;;3.93;2.60;;;;;;;;;;6108483;23;20451;-89
2024/03/23 14:03:05;;;;;;;1.53;1.23;;;;;;;;;;6109627;23;20414;-89
2024/03/23 14:05:38;;;;;;;1.67;0.70;;;;;;;;;;6109459;23;20404;-88
2024/03/23 14:08:18;;;;;;;0.93;0.80;;;;;;;;;;6106852;23;20440;-86
2024/03/23 14:10:59;;;;;;;2.67;0.70;;;;;;;;;;6107436;23;20408;-87
2024/03/23 14:13:35;;;;;;;1.57;0.80;;;;;;;;;;6109297;23;20439;-85
2024/03/23 14:16:06;;;;;;;1.43;0.77;;;;;;;;;;6111504;23;20405;-87
2024/03/23 14:18:38;;;;;;;1.17;0.80;;;;;;;;;;6107487;23;20430;-87
2024/03/23 14:21:07;;;;;;;1.70;0.83;;;;;;;;;;6112685;23;20452;-87
2024/03/23 14:24:09;;;;;;;1.47;0.90;;;;;;;;;;6123730;23;20384;-87
2024/03/23 14:26:48;;;;;;;3.33;1.00;;;;;;;;;;6111322;23;20395;-87
2024/03/23 14:29:47;;;;;;;1.37;1.23;;;;;;;;;;6108963;23;20408;-87
2024/03/23 14:32:42;;;;;;;2.30;1.40;;;;;;;;;;6110987;23;20408;-87
2024/03/23 14:35:15;;;;;;;1.10;0.90;;;;;;;;;;6113648;23;20399;-88
2024/03/23 14:37:53;;;;;;;2.73;1.10;;;;;;;;;;6082163;23;20425;-86
2024/03/23 14:40:27;;;;;;;1.33;1.20;;;;;;;;;;6110410;23;20444;-87
2024/03/23 14:43:22;;;;;;;1.90;1.63;;;;;;;;;;6136213;23;20449;-85
2024/03/23 14:46:10;;;;;;;1.33;0.90;;;;;;;;;;6136194;23;20751;-87
2024/03/23 14:48:46;;;;;;;3.40;1.43;;;;;;;;;;6112372;23;20434;-87
2024/03/23 14:51:21;;;;;;;3.63;1.20;;;;;;;;;;6111216;23;20411;-87
2024/03/23 14:53:48;;;;;;;3.87;1.50;;;;;;;;;;6110779;23;20406;-87
2024/03/23 14:56:22;;;;;;;2.20;1.30;;;;;;;;;;6111703;23;20399;-86
2024/03/23 14:58:52;;;;;;;0.97;0.87;;;;;;;;;;6111691;23;20419;-87
2024/03/23 15:01:21;;;;;;;1.57;0.90;;;;;;;;;;6107388;23;20451;-87